Terminal Aerodrome Forecast
Issued by NWS

Home | Current Version | Previous Version | Text Only | Print | Product List | Glossary On
Versions: 1 2 3 4 5 6 7 8 9 10 11 12
000
FTUS43 KDLH 301700
TAFHYR
TAF
KHYR 301721Z 3018/3118 03011G17KT P6SM BKN035
     FM302100 04012G19KT P6SM SCT040
     FM310100 06004KT P6SM SKC
     FM311500 10007KT P6SM FEW200=

USA.gov is the U.S. government's official web portal to all federal, state and local government web resources and services.